sensor_id;sensor_type;location;lat;lon;timestamp;pressure;altitude;pressure_sealevel;temperature;humidity
56600;BME280;51832;48.152;11.530;2024-02-04T00:02:18;96454.22;;;7.62;100.00
56600;BME280;51832;48.152;11.530;2024-02-04T00:07:19;96456.69;;;7.78;100.00
56600;BME280;51832;48.152;11.530;2024-02-04T00:12:20;96452.38;;;7.10;100.00
56600;BME280;51832;48.152;11.530;2024-02-04T00:17:21;96448.44;;;7.29;100.00
56600;BME280;51832;48.152;11.530;2024-02-04T00:22:22;96466.16;;;7.41;100.00
56600;BME280;51832;48.152;11.530;2024-02-04T00:27:23;96446.16;;;7.48;100.00
56600;BME280;51832;48.152;11.530;2024-02-04T00:32:23;96461.22;;;7.46;100.00
56600;BME280;51832;48.152;11.530;2024-02-04T00:37:24;96437.38;;;7.04;100.00
56600;BME280;51832;48.152;11.530;2024-02-04T00:42:24;96430.97;;;7.06;100.00
56600;BME280;51832;48.152;11.530;2024-02-04T00:47:24;96430.25;;;7.35;100.00
56600;BME280;51832;48.152;11.530;2024-02-04T00:52:26;96413.69;;;6.97;100.00
56600;BME280;51832;48.152;11.530;2024-02-04T00:57:26;96410.78;;;7.15;100.00
56600;BME280;51832;48.152;11.530;2024-02-04T01:02:27;96408.06;;;7.08;100.00
56600;BME280;51832;48.152;11.530;2024-02-04T01:07:27;96404.16;;;7.04;100.00
56600;BME280;51832;48.152;11.530;2024-02-04T01:12:27;96408.00;;;7.31;100.00
56600;BME280;51832;48.152;11.530;2024-02-04T01:17:28;96384.78;;;7.13;100.00
56600;BME280;51832;48.152;11.530;2024-02-04T01:22:28;96386.41;;;7.14;100.00
56600;BME280;51832;48.152;11.530;2024-02-04T01:27:29;96383.72;;;7.23;100.00
56600;BME280;51832;48.152;11.530;2024-02-04T01:32:29;96372.25;;;6.86;100.00
56600;BME280;51832;48.152;11.530;2024-02-04T01:37:30;96378.16;;;7.03;100.00
56600;BME280;51832;48.152;11.530;2024-02-04T01:42:30;96369.53;;;6.80;100.00
56600;BME280;51832;48.152;11.530;2024-02-04T01:47:31;96382.38;;;6.89;100.00
56600;BME280;51832;48.152;11.530;2024-02-04T01:52:33;96417.13;;;6.75;100.00
56600;BME280;51832;48.152;11.530;2024-02-04T01:57:36;96423.69;;;6.71;100.00
56600;BME280;51832;48.152;11.530;2024-02-04T02:02:40;96388.81;;;7.01;100.00
56600;BME280;51832;48.152;11.530;2024-02-04T02:07:41;96398.88;;;6.90;100.00
56600;BME280;51832;48.152;11.530;2024-02-04T02:12:50;96384.28;;;7.33;100.00
56600;BME280;51832;48.152;11.530;2024-02-04T02:18:02;96389.97;;;6.99;100.00
56600;BME280;51832;48.152;11.530;2024-02-04T02:23:10;96399.75;;;7.57;100.00
56600;BME280;51832;48.152;11.530;2024-02-04T02:28:12;96383.75;;;7.37;100.00
56600;BME280;51832;48.152;11.530;2024-02-04T02:33:13;96368.47;;;7.26;100.00
56600;BME280;51832;48.152;11.530;2024-02-04T02:38:49;96373.97;;;7.31;100.00
56600;BME280;51832;48.152;11.530;2024-02-04T02:43:54;96362.97;;;6.98;100.00
56600;BME280;51832;48.152;11.530;2024-02-04T02:48:56;96365.72;;;7.05;100.00
56600;BME280;51832;48.152;11.530;2024-02-04T02:53:56;96369.84;;;6.99;100.00
56600;BME280;51832;48.152;11.530;2024-02-04T02:58:57;96364.72;;;7.06;100.00
56600;BME280;51832;48.152;11.530;2024-02-04T03:03:57;96377.41;;;7.32;100.00
56600;BME280;51832;48.152;11.530;2024-02-04T03:08:58;96378.91;;;7.64;100.00
56600;BME280;51832;48.152;11.530;2024-02-04T03:13:58;96399.19;;;7.47;100.00
56600;BME280;51832;48.152;11.530;2024-02-04T03:18:59;96391.59;;;7.52;100.00
56600;BME280;51832;48.152;11.530;2024-02-04T03:23:59;96388.59;;;7.40;100.00
56600;BME280;51832;48.152;11.530;2024-02-04T03:29:00;96406.25;;;7.61;100.00
56600;BME280;51832;48.152;11.530;2024-02-04T03:34:00;96389.69;;;7.31;100.00
56600;BME280;51832;48.152;11.530;2024-02-04T03:39:01;96406.03;;;7.33;100.00
56600;BME280;51832;48.152;11.530;2024-02-04T03:44:01;96394.53;;;7.20;100.00
56600;BME280;51832;48.152;11.530;2024-02-04T03:49:02;96381.59;;;7.56;100.00
56600;BME280;51832;48.152;11.530;2024-02-04T03:54:02;96381.03;;;7.45;100.00
56600;BME280;51832;48.152;11.530;2024-02-04T03:59:03;96381.22;;;7.44;100.00
56600;BME280;51832;48.152;11.530;2024-02-04T04:04:03;96380.53;;;7.65;100.00
56600;BME280;51832;48.152;11.530;2024-02-04T04:09:04;96387.34;;;7.66;100.00
56600;BME280;51832;48.152;11.530;2024-02-04T04:14:05;96376.28;;;7.64;100.00
56600;BME280;51832;48.152;11.530;2024-02-04T04:19:06;96390.25;;;7.56;100.00
56600;BME280;51832;48.152;11.530;2024-02-04T04:24:07;96387.09;;;7.61;100.00
56600;BME280;51832;48.152;11.530;2024-02-04T04:29:07;96374.63;;;7.33;100.00
56600;BME280;51832;48.152;11.530;2024-02-04T04:34:08;96372.88;;;7.26;100.00
56600;BME280;51832;48.152;11.530;2024-02-04T04:39:08;96365.84;;;7.26;100.00
56600;BME280;51832;48.152;11.530;2024-02-04T04:44:09;96397.41;;;7.10;100.00
56600;BME280;51832;48.152;11.530;2024-02-04T04:49:09;96386.38;;;7.37;100.00
56600;BME280;51832;48.152;11.530;2024-02-04T04:54:10;96385.63;;;7.43;100.00
56600;BME280;51832;48.152;11.530;2024-02-04T04:59:10;96391.81;;;7.51;100.00
56600;BME280;51832;48.152;11.530;2024-02-04T05:04:11;96379.59;;;7.58;100.00
56600;BME280;51832;48.152;11.530;2024-02-04T05:09:11;96384.75;;;7.66;100.00
56600;BME280;51832;48.152;11.530;2024-02-04T05:14:12;96380.31;;;7.66;100.00
56600;BME280;51832;48.152;11.530;2024-02-04T05:19:12;96359.38;;;7.52;100.00
56600;BME280;51832;48.152;11.530;2024-02-04T05:24:13;96357.94;;;7.64;100.00
56600;BME280;51832;48.152;11.530;2024-02-04T05:29:13;96372.19;;;7.61;100.00
56600;BME280;51832;48.152;11.530;2024-02-04T05:34:14;96379.94;;;7.55;100.00
56600;BME280;51832;48.152;11.530;2024-02-04T05:39:16;96380.06;;;7.61;100.00
56600;BME280;51832;48.152;11.530;2024-02-04T05:44:17;96359.63;;;7.86;100.00
56600;BME280;51832;48.152;11.530;2024-02-04T05:49:17;96358.75;;;7.79;100.00
56600;BME280;51832;48.152;11.530;2024-02-04T05:54:17;96355.16;;;7.65;100.00
56600;BME280;51832;48.152;11.530;2024-02-04T05:59:18;96376.28;;;7.64;100.00
56600;BME280;51832;48.152;11.530;2024-02-04T06:04:18;96372.84;;;7.78;100.00
56600;BME280;51832;48.152;11.530;2024-02-04T06:09:19;96381.13;;;7.67;100.00
56600;BME280;51832;48.152;11.530;2024-02-04T06:14:19;96381.50;;;7.64;100.00
56600;BME280;51832;48.152;11.530;2024-02-04T06:19:20;96367.22;;;7.66;100.00
56600;BME280;51832;48.152;11.530;2024-02-04T06:24:20;96379.59;;;7.72;100.00
56600;BME280;51832;48.152;11.530;2024-02-04T06:29:21;96374.44;;;7.94;100.00
56600;BME280;51832;48.152;11.530;2024-02-04T06:34:21;96378.59;;;7.59;100.00
56600;BME280;51832;48.152;11.530;2024-02-04T06:39:21;96382.34;;;7.79;100.00
56600;BME280;51832;48.152;11.530;2024-02-04T06:44:22;96394.44;;;7.65;100.00
56600;BME280;51832;48.152;11.530;2024-02-04T06:49:23;96404.63;;;7.75;100.00
56600;BME280;51832;48.152;11.530;2024-02-04T06:54:23;96422.50;;;7.71;100.00
56600;BME280;51832;48.152;11.530;2024-02-04T06:59:24;96432.53;;;7.68;100.00
56600;BME280;51832;48.152;11.530;2024-02-04T07:04:24;96428.28;;;7.67;100.00
56600;BME280;51832;48.152;11.530;2024-02-04T07:09:25;96412.38;;;7.54;100.00
56600;BME280;51832;48.152;11.530;2024-02-04T07:14:25;96404.00;;;7.73;100.00
56600;BME280;51832;48.152;11.530;2024-02-04T07:19:25;96388.09;;;7.74;100.00
56600;BME280;51832;48.152;11.530;2024-02-04T07:24:26;96397.03;;;7.95;100.00
56600;BME280;51832;48.152;11.530;2024-02-04T07:29:26;96413.31;;;7.90;100.00
56600;BME280;51832;48.152;11.530;2024-02-04T07:34:27;96416.28;;;7.58;100.00
56600;BME280;51832;48.152;11.530;2024-02-04T07:39:27;96415.19;;;7.81;100.00
56600;BME280;51832;48.152;11.530;2024-02-04T07:44:28;96423.75;;;7.46;100.00
56600;BME280;51832;48.152;11.530;2024-02-04T07:49:29;96406.78;;;7.86;100.00
56600;BME280;51832;48.152;11.530;2024-02-04T07:54:29;96404.88;;;7.80;100.00
56600;BME280;51832;48.152;11.530;2024-02-04T07:59:30;96396.22;;;7.79;100.00
56600;BME280;51832;48.152;11.530;2024-02-04T08:04:30;96388.63;;;7.99;100.00
56600;BME280;51832;48.152;11.530;2024-02-04T08:09:31;96384.13;;;7.78;100.00
56600;BME280;51832;48.152;11.530;2024-02-04T08:14:31;96400.53;;;8.16;100.00
56600;BME280;51832;48.152;11.530;2024-02-04T08:19:32;96415.09;;;8.19;100.00
56600;BME280;51832;48.152;11.530;2024-02-04T08:24:33;96414.72;;;8.37;98.52
56600;BME280;51832;48.152;11.530;2024-02-04T08:29:33;96397.91;;;8.31;99.22
56600;BME280;51832;48.152;11.530;2024-02-04T08:34:34;96393.06;;;8.49;98.23
56600;BME280;51832;48.152;11.530;2024-02-04T08:39:35;96393.38;;;8.40;98.95
56600;BME280;51832;48.152;11.530;2024-02-04T08:44:35;96393.34;;;8.54;97.84
56600;BME280;51832;48.152;11.530;2024-02-04T08:49:37;96379.41;;;8.54;97.72
56600;BME280;51832;48.152;11.530;2024-02-04T08:54:37;96384.91;;;8.80;96.15
56600;BME280;51832;48.152;11.530;2024-02-04T08:59:38;96395.72;;;8.71;95.71
56600;BME280;51832;48.152;11.530;2024-02-04T09:04:38;96365.41;;;8.89;95.20
56600;BME280;51832;48.152;11.530;2024-02-04T09:09:40;96356.28;;;9.07;94.44
56600;BME280;51832;48.152;11.530;2024-02-04T09:14:51;96354.34;;;9.15;94.08
56600;BME280;51832;48.152;11.530;2024-02-04T09:19:51;96365.28;;;8.76;94.97
56600;BME280;51832;48.152;11.530;2024-02-04T09:24:52;96388.63;;;8.86;94.38
56600;BME280;51832;48.152;11.530;2024-02-04T09:29:52;96354.88;;;8.83;94.93
56600;BME280;51832;48.152;11.530;2024-02-04T09:34:55;96379.78;;;8.94;94.76
56600;BME280;51832;48.152;11.530;2024-02-04T09:39:55;96357.19;;;8.71;95.86
56600;BME280;51832;48.152;11.530;2024-02-04T09:44:56;96376.69;;;8.83;94.78
56600;BME280;51832;48.152;11.530;2024-02-04T09:49:57;96378.03;;;9.01;94.37
56600;BME280;51832;48.152;11.530;2024-02-04T09:55:01;96350.59;;;9.03;94.28
56600;BME280;51832;48.152;11.530;2024-02-04T10:00:03;96381.28;;;8.81;95.05
56600;BME280;51832;48.152;11.530;2024-02-04T10:05:10;96398.53;;;9.12;93.51
56600;BME280;51832;48.152;11.530;2024-02-04T10:10:11;96409.63;;;8.86;95.00
56600;BME280;51832;48.152;11.530;2024-02-04T10:15:12;96395.66;;;9.07;94.07
56600;BME280;51832;48.152;11.530;2024-02-04T10:20:14;96414.34;;;8.97;94.73
56600;BME280;51832;48.152;11.530;2024-02-04T10:25:14;96408.72;;;9.21;93.62
56600;BME280;51832;48.152;11.530;2024-02-04T10:30:19;96388.47;;;9.15;93.44
56600;BME280;51832;48.152;11.530;2024-02-04T10:35:21;96378.25;;;9.55;92.43
56600;BME280;51832;48.152;11.530;2024-02-04T10:40:23;96373.47;;;9.65;90.54
56600;BME280;51832;48.152;11.530;2024-02-04T10:45:29;96384.69;;;9.24;93.05
56600;BME280;51832;48.152;11.530;2024-02-04T10:50:35;96383.81;;;9.73;91.40
56600;BME280;51832;48.152;11.530;2024-02-04T10:55:41;96384.94;;;9.92;90.33
56600;BME280;51832;48.152;11.530;2024-02-04T11:00:43;96384.44;;;9.75;91.15
56600;BME280;51832;48.152;11.530;2024-02-04T11:05:44;96368.22;;;9.72;92.32
56600;BME280;51832;48.152;11.530;2024-02-04T11:10:45;96335.63;;;10.01;92.13
56600;BME280;51832;48.152;11.530;2024-02-04T11:15:46;96330.81;;;10.98;87.89
56600;BME280;51832;48.152;11.530;2024-02-04T11:26:07;96305.03;;;10.54;88.30
56600;BME280;51832;48.152;11.530;2024-02-04T11:31:19;96303.03;;;10.82;87.54
56600;BME280;51832;48.152;11.530;2024-02-04T11:36:24;96308.94;;;10.97;86.11
56600;BME280;51832;48.152;11.530;2024-02-04T11:41:25;96288.47;;;11.06;85.19
56600;BME280;51832;48.152;11.530;2024-02-04T11:46:30;96273.88;;;10.97;85.83
56600;BME280;51832;48.152;11.530;2024-02-04T11:51:32;96275.09;;;10.68;86.34
56600;BME280;51832;48.152;11.530;2024-02-04T11:56:33;96285.63;;;10.68;86.89
56600;BME280;51832;48.152;11.530;2024-02-04T12:01:33;96279.16;;;10.90;85.66
56600;BME280;51832;48.152;11.530;2024-02-04T12:06:37;96283.00;;;10.81;85.10
56600;BME280;51832;48.152;11.530;2024-02-04T12:11:37;96277.97;;;10.93;86.20
56600;BME280;51832;48.152;11.530;2024-02-04T12:16:39;96266.38;;;10.94;85.60
56600;BME280;51832;48.152;11.530;2024-02-04T12:21:40;96250.94;;;11.24;83.96
56600;BME280;51832;48.152;11.530;2024-02-04T12:26:40;96236.84;;;10.92;85.63
56600;BME280;51832;48.152;11.530;2024-02-04T12:31:41;96229.72;;;10.99;85.05
56600;BME280;51832;48.152;11.530;2024-02-04T12:36:42;96240.44;;;11.11;84.68
56600;BME280;51832;48.152;11.530;2024-02-04T12:41:43;96218.19;;;10.93;85.63
56600;BME280;51832;48.152;11.530;2024-02-04T12:46:53;96216.28;;;11.27;84.24
56600;BME280;51832;48.152;11.530;2024-02-04T12:52:03;96205.75;;;11.33;83.96
56600;BME280;51832;48.152;11.530;2024-02-04T12:57:04;96168.34;;;11.56;83.21
56600;BME280;51832;48.152;11.530;2024-02-04T13:02:07;96164.88;;;11.62;82.82
56600;BME280;51832;48.152;11.530;2024-02-04T13:07:09;96168.38;;;11.50;82.53
56600;BME280;51832;48.152;11.530;2024-02-04T13:12:11;96162.97;;;11.83;81.29
56600;BME280;51832;48.152;11.530;2024-02-04T13:17:14;96204.16;;;11.84;81.41
56600;BME280;51832;48.152;11.530;2024-02-04T13:22:15;96201.84;;;11.94;80.81
56600;BME280;51832;48.152;11.530;2024-02-04T13:27:15;96205.22;;;12.07;80.51
56600;BME280;51832;48.152;11.530;2024-02-04T13:32:17;96206.97;;;12.20;80.00
56600;BME280;51832;48.152;11.530;2024-02-04T13:37:18;96199.22;;;11.94;81.26
56600;BME280;51832;48.152;11.530;2024-02-04T13:42:18;96189.97;;;11.78;81.64
56600;BME280;51832;48.152;11.530;2024-02-04T13:47:19;96187.03;;;11.93;80.91
56600;BME280;51832;48.152;11.530;2024-02-04T13:52:19;96196.66;;;11.81;81.60
56600;BME280;51832;48.152;11.530;2024-02-04T13:57:21;96187.38;;;12.03;80.16
56600;BME280;51832;48.152;11.530;2024-02-04T14:02:21;96192.03;;;12.07;79.86
56600;BME280;51832;48.152;11.530;2024-02-04T14:07:25;96187.34;;;11.78;80.53
56600;BME280;51832;48.152;11.530;2024-02-04T14:12:26;96194.66;;;11.63;80.96
56600;BME280;51832;48.152;11.530;2024-02-04T14:17:26;96181.28;;;11.64;80.75
56600;BME280;51832;48.152;11.530;2024-02-04T14:22:27;96184.09;;;11.76;81.22
56600;BME280;51832;48.152;11.530;2024-02-04T14:27:28;96173.34;;;11.78;81.55
56600;BME280;51832;48.152;11.530;2024-02-04T14:32:30;96167.53;;;12.00;80.53
56600;BME280;51832;48.152;11.530;2024-02-04T14:37:31;96192.31;;;11.99;80.19
56600;BME280;51832;48.152;11.530;2024-02-04T14:42:35;96187.19;;;12.04;79.99
56600;BME280;51832;48.152;11.530;2024-02-04T14:47:37;96183.09;;;12.08;79.77
56600;BME280;51832;48.152;11.530;2024-02-04T14:52:37;96170.16;;;12.32;78.83
56600;BME280;51832;48.152;11.530;2024-02-04T14:57:38;96179.41;;;11.78;81.57
56600;BME280;51832;48.152;11.530;2024-02-04T15:02:38;96208.06;;;12.06;80.53
56600;BME280;51832;48.152;11.530;2024-02-04T15:07:39;96200.38;;;12.04;80.97
56600;BME280;51832;48.152;11.530;2024-02-04T15:12:41;96198.00;;;12.28;79.92
56600;BME280;51832;48.152;11.530;2024-02-04T15:17:41;96177.44;;;12.05;81.11
56600;BME280;51832;48.152;11.530;2024-02-04T15:22:42;96183.97;;;12.02;81.10
56600;BME280;51832;48.152;11.530;2024-02-04T15:27:46;96183.81;;;12.22;80.50
56600;BME280;51832;48.152;11.530;2024-02-04T15:32:47;96200.56;;;12.03;81.05
56600;BME280;51832;48.152;11.530;2024-02-04T15:37:48;96199.47;;;12.17;80.28
56600;BME280;51832;48.152;11.530;2024-02-04T15:42:48;96197.06;;;12.16;80.49
56600;BME280;51832;48.152;11.530;2024-02-04T15:47:50;96186.06;;;12.50;78.69
56600;BME280;51832;48.152;11.530;2024-02-04T15:52:52;96193.31;;;12.30;79.00
56600;BME280;51832;48.152;11.530;2024-02-04T15:57:53;96194.84;;;12.13;79.72
56600;BME280;51832;48.152;11.530;2024-02-04T16:02:54;96191.28;;;12.00;80.27
56600;BME280;51832;48.152;11.530;2024-02-04T16:07:55;96190.94;;;12.22;78.75
56600;BME280;51832;48.152;11.530;2024-02-04T16:12:58;96194.03;;;12.12;79.29
56600;BME280;51832;48.152;11.530;2024-02-04T16:17:59;96193.47;;;12.03;79.86
56600;BME280;51832;48.152;11.530;2024-02-04T16:22:59;96193.72;;;12.02;79.86
56600;BME280;51832;48.152;11.530;2024-02-04T16:28:00;96207.44;;;12.10;79.54
56600;BME280;51832;48.152;11.530;2024-02-04T16:33:00;96208.44;;;12.16;79.25
56600;BME280;51832;48.152;11.530;2024-02-04T16:38:02;96209.78;;;12.25;79.01
56600;BME280;51832;48.152;11.530;2024-02-04T16:43:03;96217.00;;;12.05;79.94
56600;BME280;51832;48.152;11.530;2024-02-04T16:48:05;96216.47;;;11.90;81.02
56600;BME280;51832;48.152;11.530;2024-02-04T16:53:05;96200.72;;;12.15;79.99
56600;BME280;51832;48.152;11.530;2024-02-04T16:58:06;96201.78;;;12.07;80.15
56600;BME280;51832;48.152;11.530;2024-02-04T17:03:07;96198.66;;;11.85;80.89
56600;BME280;51832;48.152;11.530;2024-02-04T17:08:08;96210.38;;;11.89;80.53
56600;BME280;51832;48.152;11.530;2024-02-04T17:13:09;96221.28;;;11.55;81.38
56600;BME280;51832;48.152;11.530;2024-02-04T17:18:12;96216.00;;;11.55;81.32
56600;BME280;51832;48.152;11.530;2024-02-04T17:23:17;96210.13;;;11.53;81.32
56600;BME280;51832;48.152;11.530;2024-02-04T17:28:20;96215.59;;;11.51;81.66
56600;BME280;51832;48.152;11.530;2024-02-04T17:33:21;96237.50;;;11.52;81.31
56600;BME280;51832;48.152;11.530;2024-02-04T17:38:21;96224.97;;;11.47;81.04
56600;BME280;51832;48.152;11.530;2024-02-04T17:43:22;96214.44;;;11.40;81.33
56600;BME280;51832;48.152;11.530;2024-02-04T17:48:23;96222.94;;;11.43;80.94
56600;BME280;51832;48.152;11.530;2024-02-04T17:53:23;96209.38;;;11.39;81.38
56600;BME280;51832;48.152;11.530;2024-02-04T17:58:24;96235.53;;;11.34;81.18
56600;BME280;51832;48.152;11.530;2024-02-04T18:03:24;96211.44;;;11.24;81.65
56600;BME280;51832;48.152;11.530;2024-02-04T18:08:25;96217.31;;;11.26;81.45
56600;BME280;51832;48.152;11.530;2024-02-04T18:13:28;96221.59;;;11.20;80.87
56600;BME280;51832;48.152;11.530;2024-02-04T18:18:28;96218.78;;;10.95;81.84
56600;BME280;51832;48.152;11.530;2024-02-04T18:23:29;96213.31;;;11.03;81.50
56600;BME280;51832;48.152;11.530;2024-02-04T18:28:29;96222.84;;;10.98;82.04
56600;BME280;51832;48.152;11.530;2024-02-04T18:33:30;96213.13;;;10.98;81.77
56600;BME280;51832;48.152;11.530;2024-02-04T18:38:30;96196.06;;;11.08;81.28
56600;BME280;51832;48.152;11.530;2024-02-04T18:43:31;96211.88;;;11.08;81.49
56600;BME280;51832;48.152;11.530;2024-02-04T18:48:32;96198.72;;;10.94;81.76
56600;BME280;51832;48.152;11.530;2024-02-04T18:53:33;96191.88;;;10.80;82.51
56600;BME280;51832;48.152;11.530;2024-02-04T18:58:33;96191.03;;;10.99;81.63
56600;BME280;51832;48.152;11.530;2024-02-04T19:03:34;96190.88;;;10.75;82.43
56600;BME280;51832;48.152;11.530;2024-02-04T19:08:35;96188.03;;;10.69;83.08
56600;BME280;51832;48.152;11.530;2024-02-04T19:13:36;96174.91;;;10.56;84.04
56600;BME280;51832;48.152;11.530;2024-02-04T19:18:36;96194.75;;;10.65;83.21
56600;BME280;51832;48.152;11.530;2024-02-04T19:23:38;96202.81;;;10.77;83.17
56600;BME280;51832;48.152;11.530;2024-02-04T19:28:39;96214.13;;;10.97;82.09
56600;BME280;51832;48.152;11.530;2024-02-04T19:33:39;96200.38;;;10.89;82.88
56600;BME280;51832;48.152;11.530;2024-02-04T19:38:40;96224.28;;;10.81;83.50
56600;BME280;51832;48.152;11.530;2024-02-04T19:43:40;96198.94;;;11.06;82.48
56600;BME280;51832;48.152;11.530;2024-02-04T19:48:41;96200.56;;;11.00;82.34
56600;BME280;51832;48.152;11.530;2024-02-04T19:53:42;96208.06;;;10.90;83.23
56600;BME280;51832;48.152;11.530;2024-02-04T19:58:42;96203.03;;;10.69;83.75
56600;BME280;51832;48.152;11.530;2024-02-04T20:03:43;96201.63;;;10.60;84.22
56600;BME280;51832;48.152;11.530;2024-02-04T20:08:43;96183.00;;;10.61;83.96
56600;BME280;51832;48.152;11.530;2024-02-04T20:13:44;96209.91;;;10.70;83.43
56600;BME280;51832;48.152;11.530;2024-02-04T20:18:44;96189.66;;;10.77;83.35
56600;BME280;51832;48.152;11.530;2024-02-04T20:23:45;96199.34;;;10.96;82.56
56600;BME280;51832;48.152;11.530;2024-02-04T20:28:46;96195.69;;;11.04;81.90
56600;BME280;51832;48.152;11.530;2024-02-04T20:33:46;96202.59;;;10.92;82.52
56600;BME280;51832;48.152;11.530;2024-02-04T20:38:46;96199.75;;;10.93;82.50
56600;BME280;51832;48.152;11.530;2024-02-04T20:43:47;96201.00;;;10.71;82.66
56600;BME280;51832;48.152;11.530;2024-02-04T20:48:48;96184.78;;;10.81;82.00
56600;BME280;51832;48.152;11.530;2024-02-04T20:53:48;96191.31;;;10.65;81.80
56600;BME280;51832;48.152;11.530;2024-02-04T20:58:49;96185.00;;;10.79;80.97
56600;BME280;51832;48.152;11.530;2024-02-04T21:03:50;96194.94;;;10.71;81.06
56600;BME280;51832;48.152;11.530;2024-02-04T21:08:52;96186.63;;;10.54;81.43
56600;BME280;51832;48.152;11.530;2024-02-04T21:13:52;96166.81;;;10.64;80.60
56600;BME280;51832;48.152;11.530;2024-02-04T21:18:53;96146.72;;;10.83;79.28
56600;BME280;51832;48.152;11.530;2024-02-04T21:23:54;96158.69;;;10.79;78.88
56600;BME280;51832;48.152;11.530;2024-02-04T21:28:56;96148.91;;;10.99;78.32
56600;BME280;51832;48.152;11.530;2024-02-04T21:33:57;96146.84;;;11.15;76.93
56600;BME280;51832;48.152;11.530;2024-02-04T21:38:57;96165.16;;;10.77;77.77
56600;BME280;51832;48.152;11.530;2024-02-04T21:43:58;96141.28;;;10.72;78.12
56600;BME280;51832;48.152;11.530;2024-02-04T21:48:59;96135.81;;;10.73;77.81
56600;BME280;51832;48.152;11.530;2024-02-04T21:54:00;96127.72;;;10.68;77.87
56600;BME280;51832;48.152;11.530;2024-02-04T21:59:01;96119.78;;;10.81;76.94
56600;BME280;51832;48.152;11.530;2024-02-04T22:04:01;96119.19;;;10.66;77.18
56600;BME280;51832;48.152;11.530;2024-02-04T22:09:03;96124.88;;;10.69;76.56
56600;BME280;51832;48.152;11.530;2024-02-04T22:14:03;96104.19;;;10.80;75.77
56600;BME280;51832;48.152;11.530;2024-02-04T22:19:04;96121.81;;;10.86;75.22
56600;BME280;51832;48.152;11.530;2024-02-04T22:24:05;96122.81;;;10.85;74.45
56600;BME280;51832;48.152;11.530;2024-02-04T22:29:06;96133.13;;;10.93;74.20
56600;BME280;51832;48.152;11.530;2024-02-04T22:34:06;96116.53;;;10.92;73.88
56600;BME280;51832;48.152;11.530;2024-02-04T22:39:06;96124.59;;;10.97;73.93
56600;BME280;51832;48.152;11.530;2024-02-04T22:44:08;96118.09;;;11.07;73.42
56600;BME280;51832;48.152;11.530;2024-02-04T22:49:09;96110.22;;;11.00;73.54
56600;BME280;51832;48.152;11.530;2024-02-04T22:54:10;96100.50;;;11.00;73.80
56600;BME280;51832;48.152;11.530;2024-02-04T22:59:11;96112.25;;;10.98;73.66
56600;BME280;51832;48.152;11.530;2024-02-04T23:04:12;96092.03;;;10.85;73.87
56600;BME280;51832;48.152;11.530;2024-02-04T23:09:12;96100.91;;;10.97;73.85
56600;BME280;51832;48.152;11.530;2024-02-04T23:14:14;96089.25;;;10.67;74.88
56600;BME280;51832;48.152;11.530;2024-02-04T23:19:14;96071.94;;;10.97;73.65
56600;BME280;51832;48.152;11.530;2024-02-04T23:24:15;96075.06;;;10.75;74.87
56600;BME280;51832;48.152;11.530;2024-02-04T23:29:15;96079.66;;;10.92;74.46
56600;BME280;51832;48.152;11.530;2024-02-04T23:34:16;96077.25;;;10.91;74.24
56600;BME280;51832;48.152;11.530;2024-02-04T23:39:16;96060.03;;;10.88;74.55
56600;BME280;51832;48.152;11.530;2024-02-04T23:44:19;96068.28;;;10.98;74.24
56600;BME280;51832;48.152;11.530;2024-02-04T23:49:19;96059.16;;;11.01;73.80
56600;BME280;51832;48.152;11.530;2024-02-04T23:54:19;96053.91;;;11.01;73.73
56600;BME280;51832;48.152;11.530;2024-02-04T23:59:20;96038.31;;;10.99;73.84
